Current Conditions
Overcast
Conditions



Pressure
1019.98 (hPa) - 30.12 (inHG)
Visibility

9.7 (km) - 6.0 (miles)
Temperature
15  °C
Temperature
14  °C
Dewpoint
94  %
 Humidity
Wind Speed
10  km/h
5  kts
6  mph
2.7  m/s
Wind Direction
N
45°
E
90°
135°
S
180°
225°
W
270°
315°
 250°

West South
West
Airport Data
EHVK
Volkel Air Base
Metar :EHVK 240025Z AUTO 25005KT 9999 OVC270 15/14 Q1020 BLU
Wed 24th July 02:25 am
Raw Metar Info
Raw METAR is the most common format in the world for the transmission of observational weather data. It is highly standardized through the International Civil Aviation Organization (ICAO), which allows it to be understood throughout most of the world.
API Info
Data Provided by
https://www.checkwx.com/weather/EHVK

Aviation Weather providing METAR, TAF, AIRMET, SIGMET and OUTLOOK Weather Reports
© Info
CSS/SVG/PHP scripts were developed by weather34.com for use in the weather34 template © 2015-2024

Guide Info provided by Metar-Wikipedia